Time;durP1;ratioP1;P1;durP2;ratioP2;P2;SDS_P1;SDS_P2;PMS_P1;PMS_P2;Temp;Humidity;BMP_temperature;BMP_pressure;BME280_temperature;BME280_humidity;BME280_pressure;Samples;Min_cycle;Max_cycle;Signal;HPM_P1;HPM_P2
2022/07/10 00:00:31;;;;;;;11.65;9.93;;;;;;;17.88;68.02;94563.72;4165163;28;20128;-57
2022/07/10 00:02:33;;;;;;;9.85;8.95;;;;;;;17.87;68.19;94562.88;4174012;28;20094;-56
2022/07/10 00:04:35;;;;;;;10.70;9.63;;;;;;;17.83;68.17;94561.66;4176988;28;20053;-56
2022/07/10 00:06:40;;;;;;;10.63;9.52;;;;;;;17.81;68.37;94559.22;4175837;28;20052;-57
2022/07/10 00:08:42;;;;;;;10.18;9.18;;;;;;;17.81;68.37;94558.41;4161279;28;20060;-56
2022/07/10 00:10:44;;;;;;;10.90;9.27;;;;;;;17.70;68.79;94548.41;4172349;28;20049;-58
2022/07/10 00:12:46;;;;;;;10.65;9.65;;;;;;;17.74;68.30;94555.75;4166520;28;20044;-58
2022/07/10 00:14:48;;;;;;;12.90;9.93;;;;;;;17.70;68.39;94551.06;4166382;28;20131;-57
2022/07/10 00:16:50;;;;;;;11.55;10.10;;;;;;;17.68;68.71;94556.59;4172792;28;20049;-57
2022/07/10 00:18:52;;;;;;;11.40;10.05;;;;;;;17.64;68.76;94563.31;4174709;28;20049;-57
2022/07/10 00:20:54;;;;;;;10.70;9.60;;;;;;;17.71;68.75;94552.72;4172002;28;20045;-56
2022/07/10 00:22:56;;;;;;;10.40;9.40;;;;;;;17.68;68.93;94553.94;4159689;28;20042;-55
2022/07/10 00:25:06;;;;;;;11.68;10.10;;;;;;;17.65;69.00;94553.53;4170181;28;20417;-56
2022/07/10 00:27:08;;;;;;;11.55;10.35;;;;;;;17.61;69.19;94555.78;4176671;28;20079;-58
2022/07/10 00:29:09;;;;;;;10.65;9.55;;;;;;;17.61;69.37;94548.63;4158998;28;20484;-56
2022/07/10 00:31:11;;;;;;;14.90;10.60;;;;;;;17.58;69.17;94546.41;4162360;28;20505;-56
2022/07/10 00:33:13;;;;;;;11.40;9.98;;;;;;;17.56;69.62;94550.28;4158444;28;20056;-54
2022/07/10 00:35:15;;;;;;;10.93;9.82;;;;;;;17.52;69.55;94541.94;4169875;28;20126;-56
2022/07/10 00:37:16;;;;;;;10.63;9.63;;;;;;;17.55;69.48;94544.19;4162741;28;20045;-57
2022/07/10 00:39:18;;;;;;;10.88;9.88;;;;;;;17.44;69.98;94542.13;4158599;28;20090;-56
2022/07/10 00:41:20;;;;;;;12.25;10.35;;;;;;;17.49;69.58;94536.25;4163958;28;20098;-57
2022/07/10 00:43:21;;;;;;;12.27;9.60;;;;;;;17.49;69.82;94539.72;4168389;28;20050;-56
2022/07/10 00:45:23;;;;;;;10.70;9.68;;;;;;;17.46;69.82;94542.75;4169651;28;20053;-55
2022/07/10 00:47:25;;;;;;;11.38;10.13;;;;;;;17.47;69.71;94535.66;4161861;28;20049;-57
2022/07/10 00:49:27;;;;;;;12.70;10.02;;;;;;;17.50;69.72;94535.22;4172821;28;20144;-56
2022/07/10 00:51:29;;;;;;;11.88;10.68;;;;;;;17.49;69.67;94531.75;4162190;28;20061;-55
2022/07/10 00:53:31;;;;;;;13.80;9.77;;;;;;;17.49;69.53;94526.47;4158918;28;20402;-56
2022/07/10 00:55:36;;;;;;;10.95;9.85;;;;;;;17.44;69.80;94530.75;4158136;28;20286;-55
2022/07/10 00:57:39;;;;;;;11.38;10.20;;;;;;;17.37;69.79;94526.25;4159391;28;20100;-56
2022/07/10 00:59:41;;;;;;;10.95;9.85;;;;;;;17.32;70.13;94527.91;4156972;28;20132;-57
2022/07/10 01:01:44;;;;;;;11.98;10.60;;;;;;;17.34;69.87;94531.97;4159137;28;20057;-57
2022/07/10 01:03:47;;;;;;;11.77;10.40;;;;;;;17.37;70.03;94528.09;4174738;28;20394;-57
2022/07/10 01:05:48;;;;;;;10.90;9.80;;;;;;;17.37;69.77;94528.09;4169027;28;20275;-56
2022/07/10 01:07:50;;;;;;;14.02;10.00;;;;;;;17.37;69.94;94520.97;4167084;28;20076;-56
2022/07/10 01:09:52;;;;;;;10.55;9.45;;;;;;;17.36;69.84;94526.50;4161881;28;20052;-58
2022/07/10 01:11:53;;;;;;;10.85;9.82;;;;;;;17.37;69.72;94525.44;4157018;28;20132;-58
2022/07/10 01:13:55;;;;;;;14.05;10.30;;;;;;;17.27;70.33;94519.75;4159982;28;20061;-57
2022/07/10 01:15:57;;;;;;;12.13;10.05;;;;;;;17.28;70.17;94527.50;4161410;28;20088;-57
2022/07/10 01:17:59;;;;;;;11.73;10.57;;;;;;;17.24;70.34;94522.81;4169056;28;20099;-57
2022/07/10 01:20:07;;;;;;;11.63;9.85;;;;;;;17.29;70.17;94523.00;4178976;28;20424;-57
2022/07/10 01:22:09;;;;;;;10.90;9.80;;;;;;;17.19;70.51;94518.94;4169181;28;20493;-56
2022/07/10 01:24:11;;;;;;;11.00;9.85;;;;;;;17.22;70.31;94522.22;4176799;28;20057;-56
2022/07/10 01:26:13;;;;;;;11.50;10.18;;;;;;;17.22;70.47;94522.22;4177682;28;20385;-57
2022/07/10 01:28:16;;;;;;;11.57;10.48;;;;;;;17.20;70.61;94520.56;4171486;28;20114;-57
2022/07/10 01:30:19;;;;;;;13.13;10.38;;;;;;;17.18;70.53;94519.94;4170144;28;20485;-57
2022/07/10 01:32:20;;;;;;;10.90;9.90;;;;;;;17.17;70.68;94518.34;4173311;28;20083;-57
2022/07/10 01:34:23;;;;;;;10.95;9.85;;;;;;;17.20;70.48;94514.47;4176900;28;20545;-56
2022/07/10 01:36:24;;;;;;;11.15;9.93;;;;;;;17.28;70.25;94505.50;4176610;28;20045;-56
2022/07/10 01:38:26;;;;;;;12.90;9.40;;;;;;;17.23;70.14;94507.94;4169793;28;20138;-56
2022/07/10 01:40:28;;;;;;;13.20;9.95;;;;;;;17.25;70.27;94503.25;4169029;28;20056;-54
2022/07/10 01:42:29;;;;;;;10.82;9.73;;;;;;;17.28;69.84;94505.50;4172713;28;20115;-57
2022/07/10 01:44:31;;;;;;;12.65;9.35;;;;;;;17.27;70.07;94503.88;4173913;28;20461;-54
2022/07/10 01:46:33;;;;;;;11.00;9.18;;;;;;;17.34;69.78;94496.75;4177165;28;20057;-56
2022/07/10 01:48:35;;;;;;;11.00;9.90;;;;;;;17.37;69.64;94497.13;4175525;28;20120;-57
2022/07/10 01:50:38;;;;;;;11.65;10.40;;;;;;;17.41;69.49;94500.19;4164784;28;20415;-57
2022/07/10 01:52:40;;;;;;;11.73;9.68;;;;;;;17.32;69.55;94509.38;4177666;28;20049;-57
2022/07/10 01:54:42;;;;;;;11.63;9.48;;;;;;;17.30;69.81;94503.47;4177894;28;20420;-57
2022/07/10 01:56:43;;;;;;;14.85;9.80;;;;;;;17.20;69.72;94504.69;4171798;28;20225;-54
2022/07/10 01:58:45;;;;;;;12.18;9.52;;;;;;;17.08;70.21;94498.41;4161262;28;20499;-57
2022/07/10 02:00:47;;;;;;;10.73;9.65;;;;;;;17.11;70.32;94505.91;4170862;28;20057;-58
2022/07/10 02:04:40;;;;;;;10.45;9.35;;;;;;;17.12;70.27;94499.63;4173163;28;20041;-56
2022/07/10 02:05:10;;;;;;;11.02;9.65;;;;;;;17.18;69.95;94496.13;4174540;28;20053;-50
2022/07/10 02:07:14;;;;;;;14.50;9.43;;;;;;;17.14;70.01;94499.41;4167378;28;20515;-53
2022/07/10 02:09:16;;;;;;;14.57;9.45;;;;;;;17.13;70.18;94493.28;4168748;28;20041;-53
2022/07/10 02:11:18;;;;;;;10.80;9.27;;;;;;;17.15;69.78;94493.09;4173818;28;20056;-55
2022/07/10 02:13:20;;;;;;;9.98;8.98;;;;;;;17.06;70.09;94494.34;4176709;28;20438;-54
2022/07/10 02:15:22;;;;;;;13.15;9.43;;;;;;;17.07;70.12;94490.66;4174428;28;20372;-53
2022/07/10 02:17:23;;;;;;;11.93;8.68;;;;;;;17.09;70.16;94491.25;4165278;28;20479;-51
2022/07/10 02:19:25;;;;;;;12.70;10.18;;;;;;;17.06;70.06;94491.69;4177853;28;20057;-50
2022/07/10 02:21:27;;;;;;;12.20;9.18;;;;;;;17.13;70.21;94489.84;4178166;28;20060;-53
2022/07/10 02:23:28;;;;;;;10.13;9.18;;;;;;;17.13;70.15;94489.84;4176837;28;20053;-53
2022/07/10 02:25:30;;;;;;;10.73;9.57;;;;;;;17.06;70.17;94489.84;4176673;28;20505;-53
2022/07/10 02:27:32;;;;;;;11.10;9.57;;;;;;;17.03;70.29;94492.88;4171941;28;20405;-53
2022/07/10 02:29:33;;;;;;;13.48;9.82;;;;;;;16.96;70.38;94484.13;4161526;28;20053;-54
2022/07/10 02:31:40;;;;;;;10.43;9.02;;;;;;;17.00;70.33;94493.31;4162868;28;20050;-53
2022/07/10 02:33:42;;;;;;;10.98;9.88;;;;;;;16.97;70.62;94483.94;4171637;28;20261;-51
2022/07/10 02:35:44;;;;;;;13.95;9.05;;;;;;;16.95;70.46;94485.13;4161071;28;20639;-52
2022/07/10 02:37:45;;;;;;;12.15;9.43;;;;;;;16.98;70.51;94484.75;4160959;28;20069;-53
2022/07/10 02:39:47;;;;;;;9.73;8.82;;;;;;;16.94;70.47;94491.47;4173448;28;20053;-52
2022/07/10 02:41:49;;;;;;;11.38;8.93;;;;;;;16.93;70.37;94484.56;4175558;28;20452;-52
2022/07/10 02:43:51;;;;;;;11.38;9.02;;;;;;;16.99;70.11;94491.66;4161304;28;20045;-55
2022/07/10 02:45:52;;;;;;;13.48;9.65;;;;;;;16.98;70.22;94493.50;4160728;28;20049;-53
2022/07/10 02:47:54;;;;;;;9.73;8.73;;;;;;;16.98;69.92;94496.16;4160112;28;20049;-53
2022/07/10 02:49:56;;;;;;;10.38;9.38;;;;;;;17.02;69.82;94493.91;4160422;28;20061;-54
2022/07/10 02:51:58;;;;;;;9.93;8.93;;;;;;;17.01;69.71;94499.41;4168794;28;20634;-50
2022/07/10 02:53:59;;;;;;;11.00;8.65;;;;;;;16.98;69.94;94495.34;4170134;28;20100;-52
2022/07/10 02:56:01;;;;;;;11.98;9.13;;;;;;;17.00;69.95;94501.25;4161218;28;20065;-51
2022/07/10 02:58:03;;;;;;;11.52;9.13;;;;;;;17.04;69.48;94505.09;4159989;28;20110;-54
2022/07/10 03:00:05;;;;;;;9.68;8.48;;;;;;;17.03;69.70;94505.31;4174864;28;20095;-52
2022/07/10 03:02:07;;;;;;;10.52;8.75;;;;;;;17.07;69.39;94509.19;4177487;28;20133;-51
2022/07/10 03:04:09;;;;;;;9.93;8.88;;;;;;;17.07;69.21;94512.63;4175699;28;20361;-52
2022/07/10 03:06:11;;;;;;;9.15;8.25;;;;;;;17.14;68.97;94509.97;4167824;28;20053;-52
2022/07/10 03:08:13;;;;;;;10.65;8.07;;;;;;;17.11;68.99;94511.22;4161253;28;20057;-55
2022/07/10 03:10:15;;;;;;;9.45;8.45;;;;;;;17.10;68.98;94514.88;4173822;28;20064;-53
2022/07/10 03:12:16;;;;;;;9.57;8.57;;;;;;;17.06;69.07;94516.31;4177598;28;20052;-53
2022/07/10 03:14:18;;;;;;;12.57;7.97;;;;;;;17.08;69.12;94516.09;4171226;28;20076;-52
2022/07/10 03:16:20;;;;;;;10.45;8.75;;;;;;;17.04;69.26;94515.69;4160075;28;20064;-51
2022/07/10 03:18:22;;;;;;;9.90;8.90;;;;;;;17.09;69.31;94521.19;4158944;28;20049;-52
2022/07/10 03:20:23;;;;;;;9.73;8.80;;;;;;;17.03;69.60;94516.69;4173818;28;20141;-55
2022/07/10 03:22:25;;;;;;;10.05;8.88;;;;;;;17.08;69.37;94516.09;4163028;28;21155;-52
2022/07/10 03:24:27;;;;;;;10.20;9.18;;;;;;;17.10;69.40;94522.00;4171237;28;20053;-51
2022/07/10 03:26:29;;;;;;;11.27;8.88;;;;;;;17.14;69.46;94525.88;4160301;28;20464;-53
2022/07/10 03:28:30;;;;;;;10.45;9.13;;;;;;;17.14;69.32;94520.56;4171064;28;20114;-51
2022/07/10 03:30:32;;;;;;;9.85;8.95;;;;;;;17.14;69.46;94524.06;4168991;28;20045;-54
2022/07/10 03:32:34;;;;;;;11.00;9.52;;;;;;;17.15;69.39;94525.66;4165621;28;20049;-54
2022/07/10 03:34:36;;;;;;;10.98;8.75;;;;;;;17.17;69.18;94523.63;4160061;28;20049;-53
2022/07/10 03:36:39;;;;;;;10.93;8.85;;;;;;;17.18;69.46;94527.91;4173433;28;20064;-54
2022/07/10 03:38:41;;;;;;;12.00;9.77;;;;;;;17.15;69.35;94523.03;4164305;28;20048;-54
2022/07/10 03:40:45;;;;;;;10.10;9.10;;;;;;;17.16;69.34;94514.06;4169711;28;20500;-50
2022/07/10 03:42:47;;;;;;;9.43;8.52;;;;;;;17.22;69.19;94507.13;4169504;28;20056;-52
2022/07/10 03:44:48;;;;;;;9.73;8.73;;;;;;;17.17;69.14;94510.41;4176801;28;20064;-53
2022/07/10 03:46:50;;;;;;;9.70;8.80;;;;;;;17.23;68.86;94521.19;4161524;28;20052;-48
2022/07/10 03:48:52;;;;;;;9.70;8.80;;;;;;;17.14;69.12;94510.81;4161312;28;20048;-52
2022/07/10 03:50:54;;;;;;;11.07;8.68;;;;;;;17.19;69.29;94511.00;4170328;28;20394;-49
2022/07/10 03:52:55;;;;;;;10.93;9.57;;;;;;;17.26;69.07;94512.84;4177125;28;20045;-54
2022/07/10 03:54:57;;;;;;;9.18;8.23;;;;;;;17.22;68.96;94506.31;4163379;28;20131;-54
2022/07/10 03:59:19;;;;;;;10.88;8.35;;;;;;;17.27;68.96;94504.69;4168579;28;20045;-53
2022/07/10 04:01:21;;;;;;;10.38;9.15;;;;;;;17.33;68.91;94500.41;4165354;28;20053;-52
2022/07/10 04:03:23;;;;;;;10.50;8.30;;;;;;;17.38;68.55;94500.63;4171650;28;20053;-52
2022/07/10 04:05:26;;;;;;;9.85;8.90;;;;;;;17.50;68.44;94506.91;4162242;28;21067;-53
2022/07/10 04:07:27;;;;;;;9.55;8.63;;;;;;;17.49;68.09;94507.94;4171253;28;20435;-52
2022/07/10 04:09:30;;;;;;;9.30;8.40;;;;;;;17.51;67.84;94508.53;4167730;28;20049;-56
2022/07/10 04:11:31;;;;;;;9.02;8.10;;;;;;;17.61;67.76;94505.44;4175992;28;20114;-53
2022/07/10 04:13:34;;;;;;;9.50;8.60;;;;;;;17.65;67.53;94503.22;4162009;28;20061;-53
2022/07/10 04:15:35;;;;;;;10.05;7.85;;;;;;;17.68;67.15;94502.78;4162495;28;20053;-52
2022/07/10 04:17:37;;;;;;;9.75;8.10;;;;;;;17.65;67.41;94501.38;4174324;28;20075;-52
2022/07/10 04:19:39;;;;;;;10.57;8.38;;;;;;;17.67;67.32;94503.81;4167730;28;20046;-51
2022/07/10 04:21:40;;;;;;;11.55;8.38;;;;;;;17.73;67.28;94492.41;4159632;28;20107;-52
2022/07/10 04:23:42;;;;;;;14.68;8.52;;;;;;;17.71;67.13;94492.59;4158759;28;20523;-51
2022/07/10 04:25:44;;;;;;;10.55;8.25;;;;;;;17.72;67.18;94488.91;4175402;28;20074;-53
2022/07/10 04:27:46;;;;;;;9.65;8.35;;;;;;;17.77;66.71;94490.97;4170601;28;20469;-48
2022/07/10 04:29:48;;;;;;;8.52;7.60;;;;;;;17.89;66.35;94481.34;4167041;28;20357;-52
2022/07/10 04:31:50;;;;;;;8.95;7.75;;;;;;;17.92;66.25;94486.25;4159778;28;20103;-53
2022/07/10 04:33:51;;;;;;;11.15;8.13;;;;;;;17.92;66.22;94493.38;4164402;28;20405;-52
2022/07/10 04:35:53;;;;;;;9.55;7.00;;;;;;;18.00;66.08;94486.00;4175503;28;20052;-49
2022/07/10 04:37:55;;;;;;;8.60;7.80;;;;;;;18.07;65.78;94483.34;4175776;28;20045;-51
2022/07/10 04:39:57;;;;;;;8.13;7.32;;;;;;;18.15;65.53;94495.53;4174896;28;20048;-52
2022/07/10 04:41:59;;;;;;;8.27;7.30;;;;;;;18.27;65.11;94493.03;4173113;28;20508;-53
2022/07/10 04:44:01;;;;;;;7.95;7.15;;;;;;;18.44;64.64;94491.50;4164514;28;20351;-53
2022/07/10 04:46:03;;;;;;;13.77;7.63;;;;;;;18.55;64.21;94490.03;4167493;28;20054;-52
2022/07/10 04:48:05;;;;;;;8.60;6.50;;;;;;;18.67;63.58;94488.31;4156735;28;20134;-52
2022/07/10 04:50:08;;;;;;;7.70;6.90;;;;;;;18.71;63.42;94494.78;4173497;28;20104;-52
2022/07/10 04:52:09;;;;;;;8.05;6.68;;;;;;;18.60;63.56;94498.13;4169524;28;20045;-52
2022/07/10 04:54:11;;;;;;;10.18;6.53;;;;;;;18.58;63.76;94495.72;4167155;28;20098;-51
2022/07/10 04:56:13;;;;;;;10.52;6.93;;;;;;;18.44;64.13;94493.34;4165256;28;20061;-53
2022/07/10 04:58:14;;;;;;;9.57;7.10;;;;;;;18.41;64.05;94499.88;4172537;28;20049;-52
2022/07/10 05:00:16;;;;;;;8.75;6.75;;;;;;;18.28;64.01;94494.66;4172649;28;20566;-51
2022/07/10 05:02:18;;;;;;;9.43;6.95;;;;;;;18.23;64.16;94497.94;4159123;28;20049;-56
2022/07/10 05:04:20;;;;;;;8.57;6.97;;;;;;;18.33;63.96;94495.66;4165535;28;20124;-53
2022/07/10 05:06:22;;;;;;;8.48;6.88;;;;;;;18.29;64.63;94499.75;4165451;28;20394;-53
2022/07/10 05:08:23;;;;;;;7.78;6.50;;;;;;;18.31;64.34;94494.25;4171774;28;20475;-52
2022/07/10 05:10:27;;;;;;;7.15;6.47;;;;;;;18.29;64.45;94501.59;4158680;28;20061;-51
2022/07/10 05:12:28;;;;;;;8.02;7.07;;;;;;;18.34;64.57;94494.59;4158746;28;20052;-54
2022/07/10 05:14:30;;;;;;;7.55;6.85;;;;;;;18.40;64.11;94490.31;4159365;28;20075;-50
2022/07/10 05:16:32;;;;;;;10.50;7.15;;;;;;;18.49;64.22;94496.19;4158748;28;20049;-49
2022/07/10 05:18:34;;;;;;;8.25;7.25;;;;;;;18.64;63.80;94483.44;4170323;28;20493;-52
2022/07/10 05:20:37;;;;;;;10.95;6.68;;;;;;;18.77;63.16;94485.97;4174925;28;20049;-53
2022/07/10 05:22:39;;;;;;;7.80;6.17;;;;;;;18.67;62.68;94487.47;4170839;28;20095;-51
2022/07/10 05:24:41;;;;;;;7.10;6.45;;;;;;;18.49;63.61;94494.31;4166418;28;20110;-54
2022/07/10 05:26:42;;;;;;;7.72;6.75;;;;;;;18.50;63.88;94487.19;4175691;28;20476;-53
2022/07/10 05:28:44;;;;;;;7.93;6.88;;;;;;;18.63;63.61;94487.13;4174627;28;20060;-52
2022/07/10 05:30:46;;;;;;;7.40;6.60;;;;;;;18.66;63.32;94492.00;4167709;28;20340;-50
2022/07/10 05:32:48;;;;;;;10.77;6.60;;;;;;;18.63;63.35;94493.22;4162592;28;20080;-50
2022/07/10 05:34:49;;;;;;;11.32;6.85;;;;;;;18.39;63.96;94488.66;4158453;28;20120;-52
2022/07/10 05:36:51;;;;;;;8.02;7.03;;;;;;;18.50;64.40;94492.47;4159502;28;20092;-51
2022/07/10 05:38:53;;;;;;;7.65;6.55;;;;;;;18.66;63.91;94488.53;4163901;28;20045;-53
2022/07/10 05:40:54;;;;;;;9.27;7.28;;;;;;;18.69;63.83;94488.09;4167299;28;20464;-52
2022/07/10 05:42:56;;;;;;;7.13;6.10;;;;;;;18.81;63.02;94481.91;4158068;28;20053;-50
2022/07/10 05:44:58;;;;;;;6.72;6.00;;;;;;;18.93;62.68;94481.19;4158984;28;20057;-49
2022/07/10 05:46:59;;;;;;;8.23;6.15;;;;;;;19.01;62.33;94483.59;4172635;28;20459;-53
2022/07/10 05:49:01;;;;;;;7.20;6.47;;;;;;;18.99;62.44;94478.53;4159460;28;20152;-53
2022/07/10 05:51:03;;;;;;;9.68;6.68;;;;;;;18.53;64.43;94492.06;4165872;28;20092;-52
2022/07/10 05:53:25;;;;;;;7.72;6.90;;;;;;;18.65;63.60;94492.19;4160871;28;20391;-52
2022/07/10 05:55:27;;;;;;;8.85;6.57;;;;;;;18.98;63.53;94486.69;4175755;28;20098;-53
2022/07/10 05:57:31;;;;;;;6.80;6.00;;;;;;;18.49;63.96;94486.38;4168519;28;20057;-53
2022/07/10 05:59:34;;;;;;;7.68;6.10;;;;;;;18.61;63.78;94489.97;4158883;28;20053;-50
2022/07/10 06:01:36;;;;;;;6.70;6.10;;;;;;;18.69;63.04;94488.09;4160950;28;20053;-52
2022/07/10 06:03:38;;;;;;;8.45;5.82;;;;;;;18.93;62.11;94481.19;4161591;28;20431;-52
2022/07/10 06:05:39;;;;;;;9.65;5.75;;;;;;;18.83;62.57;94487.81;4178128;28;20528;-53
2022/07/10 06:07:41;;;;;;;6.55;5.70;;;;;;;18.64;63.35;94488.72;4170806;28;20052;-51
2022/07/10 06:09:43;;;;;;;7.80;6.25;;;;;;;18.66;62.79;94481.38;4161614;28;20436;-52
2022/07/10 06:11:46;;;;;;;7.65;5.70;;;;;;;18.57;63.54;94490.63;4161786;28;20104;-52
2022/07/10 06:13:47;;;;;;;10.07;5.65;;;;;;;18.67;62.63;94483.00;4162029;28;20053;-53
2022/07/10 06:15:49;;;;;;;7.80;5.60;;;;;;;18.95;61.97;94484.47;4170262;28;20124;-54
2022/07/10 06:17:51;;;;;;;6.65;5.55;;;;;;;19.10;61.36;94479.66;4176485;28;20107;-56
2022/07/10 06:19:54;;;;;;;6.50;5.60;;;;;;;19.41;60.96;94480.59;4177546;28;20057;-56
2022/07/10 06:24:16;;;;;;;9.57;5.47;;;;;;;19.69;59.46;94474.00;4174398;28;20067;-53
2022/07/10 06:26:17;;;;;;;7.78;5.10;;;;;;;19.82;58.62;94473.88;4167723;28;20112;-51
2022/07/10 06:28:19;;;;;;;6.05;4.65;;;;;;;19.71;58.23;94466.66;4167668;28;20552;-50
2022/07/10 06:30:21;;;;;;;6.93;4.55;;;;;;;19.84;58.46;94477.13;4162068;28;20115;-52
2022/07/10 06:32:24;;;;;;;6.40;4.90;;;;;;;19.62;58.74;94480.19;4168043;28;20409;-52
2022/07/10 06:34:25;;;;;;;11.75;5.13;;;;;;;19.71;58.67;94477.28;4177806;28;20524;-52
2022/07/10 06:36:27;;;;;;;7.93;4.70;;;;;;;19.79;57.76;94471.69;4177629;28;20128;-54
2022/07/10 06:38:34;;;;;;;5.00;4.30;;;;;;;19.97;58.01;94466.34;4174710;28;20070;-54
2022/07/10 06:40:37;;;;;;;6.60;4.50;;;;;;;19.98;57.77;94473.28;4166914;28;20053;-51
2022/07/10 06:42:39;;;;;;;8.95;5.05;;;;;;;20.29;57.29;94466.16;4168521;28;20158;-51
2022/07/10 06:44:45;;;;;;;5.25;4.53;;;;;;;20.48;57.03;94466.09;4160472;28;20053;-53
2022/07/10 06:47:55;;;;;;;8.13;4.45;;;;;;;20.25;57.23;94468.44;4161295;28;20494;-52
2022/07/10 06:49:08;;;;;;;5.55;4.30;;;;;;;20.48;56.99;94458.94;4170205;28;20128;-53
2022/07/10 06:51:10;;;;;;;4.20;3.80;;;;;;;20.52;56.05;94475.25;4163320;28;20060;-53
2022/07/10 06:53:23;;;;;;;4.47;4.00;;;;;;;20.46;55.94;94464.47;4175775;28;20049;-52
2022/07/10 06:55:26;;;;;;;6.78;4.47;;;;;;;20.51;56.05;94471.78;4165651;28;20052;-52
2022/07/10 06:57:28;;;;;;;7.88;4.30;;;;;;;20.35;56.21;94465.25;4176557;28;20060;-51
2022/07/10 06:59:30;;;;;;;5.50;4.22;;;;;;;20.17;56.95;94466.09;4166577;28;20053;-49
2022/07/10 07:01:31;;;;;;;9.73;4.10;;;;;;;20.22;56.78;94468.91;4161261;28;20139;-48
2022/07/10 07:03:33;;;;;;;6.35;4.32;;;;;;;20.06;56.85;94464.19;4159972;28;20172;-51
2022/07/10 07:05:35;;;;;;;6.93;3.83;;;;;;;20.05;57.44;94467.91;4172562;28;20122;-52
2022/07/10 07:07:37;;;;;;;5.22;3.85;;;;;;;19.98;56.94;94465.31;4167891;28;20049;-51
2022/07/10 07:09:40;;;;;;;6.15;4.15;;;;;;;19.94;57.26;94464.13;4175799;28;20053;-53
2022/07/10 07:11:42;;;;;;;5.40;3.90;;;;;;;19.99;57.18;94458.16;4164352;28;20138;-52
2022/07/10 07:13:44;;;;;;;7.43;4.30;;;;;;;20.02;57.54;94458.50;4174852;28;20060;-53
2022/07/10 07:15:53;;;;;;;5.70;4.35;;;;;;;20.13;57.48;94459.59;4173004;28;20056;-53
2022/07/10 07:18:16;;;;;;;5.15;4.35;;;;;;;20.03;57.73;94465.44;4159620;28;20057;-53
2022/07/10 07:24:58;;;;;;;8.88;4.07;;;;;;;20.65;56.94;94453.81;4159593;28;20509;-51
2022/07/10 07:27:00;;;;;;;6.30;4.03;;;;;;;20.84;56.39;94458.03;4172645;28;20061;-53
2022/07/10 07:29:01;;;;;;;8.63;4.13;;;;;;;20.70;55.96;94453.94;4161992;28;20131;-54
2022/07/10 07:31:03;;;;;;;5.65;3.95;;;;;;;20.61;56.50;94452.66;4174947;28;20056;-52
2022/07/10 07:33:05;;;;;;;6.78;3.90;;;;;;;20.31;55.50;94466.75;4174839;28;20524;-51
2022/07/10 07:35:08;;;;;;;8.25;4.15;;;;;;;20.04;56.98;94464.41;4161914;28;20060;-53
2022/07/10 07:37:10;;;;;;;7.97;4.10;;;;;;;20.34;56.60;94452.16;4176377;28;20106;-56
2022/07/10 07:39:11;;;;;;;7.47;4.28;;;;;;;20.60;55.74;94449.16;4168921;28;20496;-54
2022/07/10 07:41:13;;;;;;;4.93;3.55;;;;;;;20.69;55.36;94448.84;4161709;28;20559;-53
2022/07/10 07:43:16;;;;;;;4.63;3.20;;;;;;;20.57;54.78;94454.09;4159636;28;20050;-54
2022/07/10 07:45:18;;;;;;;6.30;4.28;;;;;;;20.18;56.13;94453.63;4162173;28;20466;-57
2022/07/10 07:47:20;;;;;;;5.35;4.00;;;;;;;20.26;56.63;94447.97;4176355;28;20085;-56
2022/07/10 07:49:21;;;;;;;9.85;4.07;;;;;;;20.44;55.48;94450.59;4175559;28;20052;-55
2022/07/10 07:51:23;;;;;;;7.05;4.10;;;;;;;20.66;54.34;94450.09;4170011;28;20049;-57
2022/07/10 07:53:25;;;;;;;5.10;4.15;;;;;;;20.88;54.28;94449.56;4158953;28;20053;-54
2022/07/10 07:55:28;;;;;;;8.82;3.58;;;;;;;21.11;53.54;94446.94;4164205;28;20095;-53
2022/07/10 07:57:29;;;;;;;5.57;3.65;;;;;;;21.36;53.78;94451.22;4168210;28;20115;-56
2022/07/10 07:59:31;;;;;;;5.47;4.00;;;;;;;21.53;53.23;94448.69;4169275;28;20049;-56
2022/07/10 08:01:33;;;;;;;5.28;3.13;;;;;;;21.57;51.98;94448.00;4176169;28;20109;-56
2022/07/10 08:03:35;;;;;;;7.97;3.10;;;;;;;21.67;52.13;94437.56;4173887;28;20049;-55
2022/07/10 08:05:56;;;;;;;7.20;4.40;;;;;;;21.64;51.22;94431.91;4175283;28;20442;-53
2022/07/10 08:08:04;;;;;;;5.15;3.78;;;;;;;21.48;51.30;94441.41;4166807;28;20065;-56
2022/07/10 08:10:09;;;;;;;5.03;3.10;;;;;;;21.45;50.20;94433.91;4158918;28;20061;-55
2022/07/10 08:12:10;;;;;;;4.45;3.42;;;;;;;21.50;51.00;94447.31;4172457;28;20053;-56
2022/07/10 08:14:13;;;;;;;6.57;4.30;;;;;;;21.64;51.21;94443.38;4164259;28;20402;-56
2022/07/10 08:16:15;;;;;;;8.68;4.28;;;;;;;21.78;51.22;94443.13;4175964;28;20052;-57
2022/07/10 08:18:16;;;;;;;4.93;3.17;;;;;;;21.91;49.93;94426.84;4174783;28;20497;-56
2022/07/10 08:20:18;;;;;;;6.50;2.92;;;;;;;21.90;49.76;94443.91;4175537;28;20068;-57
2022/07/10 08:22:20;;;;;;;4.65;3.38;;;;;;;22.05;49.81;94438.06;4161423;28;20050;-56
2022/07/10 08:24:22;;;;;;;5.38;2.67;;;;;;;22.11;48.56;94437.09;4175270;28;20057;-56
2022/07/10 08:26:24;;;;;;;3.88;3.13;;;;;;;22.30;49.19;94437.75;4168205;28;20408;-56
2022/07/10 08:28:25;;;;;;;7.38;3.35;;;;;;;22.43;48.66;94436.66;4169408;28;20068;-57
2022/07/10 08:30:27;;;;;;;8.10;4.60;;;;;;;22.07;49.11;94447.47;4170830;28;20053;-56
2022/07/10 08:32:29;;;;;;;6.13;2.90;;;;;;;21.72;48.82;94452.03;4166505;28;20049;-56
2022/07/10 08:34:32;;;;;;;4.05;2.63;;;;;;;22.01;47.95;94443.06;4164682;28;20419;-54
2022/07/10 08:36:34;;;;;;;;;;;;;;;22.17;47.29;94446.03;4159148;28;20156;-55
2022/07/10 08:38:41;;;;;;;3.97;3.13;;;;;;;22.28;47.52;94439.88;4158887;28;19925;-52
2022/07/10 08:40:44;;;;;;;3.72;2.97;;;;;;;22.29;46.82;94450.31;4159658;28;20061;-55
2022/07/10 08:42:46;;;;;;;5.20;3.30;;;;;;;21.60;47.66;94442.22;4157671;28;20097;-57
2022/07/10 08:44:48;;;;;;;4.78;3.42;;;;;;;21.41;48.42;94446.84;4170924;28;20378;-56
2022/07/10 08:46:49;;;;;;;6.15;3.10;;;;;;;21.38;48.20;94443.81;4160184;28;20494;-56
2022/07/10 08:48:53;;;;;;;7.97;3.25;;;;;;;21.71;47.70;94451.25;4157943;28;20076;-57
2022/07/10 08:50:55;;;;;;;;;;;;;;;21.81;47.24;94453.31;4159716;28;20049;-54
2022/07/10 08:53:09;;;;;;;6.28;3.10;;;;;;;21.86;47.74;94445.41;4175902;28;19921;-56
2022/07/10 08:55:13;;;;;;;4.65;3.08;;;;;;;21.73;48.13;94441.16;4173367;28;20057;-55
2022/07/10 08:57:15;;;;;;;4.95;3.40;;;;;;;21.72;48.79;94444.06;4170507;28;20045;-57
2022/07/10 08:59:18;;;;;;;3.78;3.03;;;;;;;21.95;48.55;94436.00;4164719;28;20049;-57
2022/07/10 09:01:23;;;;;;;4.93;3.30;;;;;;;22.20;47.74;94438.38;4163573;28;20054;-57
2022/07/10 09:03:24;;;;;;;6.22;3.13;;;;;;;22.40;48.06;94437.97;4170801;28;20278;-54
2022/07/10 09:05:26;;;;;;;4.55;3.30;;;;;;;22.70;47.14;94428.88;4161440;28;20063;-56
2022/07/10 09:07:38;;;;;;;7.85;3.10;;;;;;;23.07;47.02;94423.09;4175888;28;20088;-57
2022/07/10 09:09:56;;;;;;;4.22;3.47;;;;;;;23.29;45.54;94423.16;4165103;28;20103;-58
2022/07/10 09:11:58;;;;;;;4.70;3.08;;;;;;;23.64;45.10;94428.22;4158122;28;20045;-58
2022/07/10 09:14:07;;;;;;;5.07;3.33;;;;;;;22.74;46.17;94438.03;4158797;28;20060;-57
2022/07/10 09:16:23;;;;;;;4.93;3.20;;;;;;;22.43;46.74;94429.47;4158425;28;20096;-57
2022/07/10 09:18:25;;;;;;;4.85;3.13;;;;;;;22.88;46.74;94414.47;4169863;28;20543;-55
2022/07/10 09:20:38;;;;;;;4.47;2.90;;;;;;;23.14;45.58;94418.38;4160725;28;20050;-58
2022/07/10 09:22:40;;;;;;;5.07;2.67;;;;;;;23.45;45.01;94416.19;4169856;28;20093;-55
2022/07/10 09:24:44;;;;;;;3.60;2.95;;;;;;;23.68;45.16;94412.47;4158327;28;20111;-55
2022/07/10 09:27:00;;;;;;;8.13;3.30;;;;;;;23.81;44.59;94412.16;4169720;28;20056;-52
2022/07/10 09:29:07;;;;;;;6.63;2.75;;;;;;;23.99;43.81;94419.03;4174291;28;20049;-50
2022/07/10 09:31:09;;;;;;;3.15;2.65;;;;;;;24.18;42.85;94410.69;4174940;28;20049;-56
2022/07/10 09:33:29;;;;;;;4.30;2.85;;;;;;;23.89;43.88;94416.25;4172664;28;20088;-54
2022/07/10 09:37:51;;;;;;;5.75;2.85;;;;;;;23.92;44.52;94421.09;4178774;28;20072;-57
2022/07/10 09:39:54;;;;;;;7.18;2.95;;;;;;;23.91;43.81;94411.44;4178748;28;20053;-57
2022/07/10 09:41:55;;;;;;;5.55;2.75;;;;;;;24.04;43.94;94407.59;4162293;28;20045;-59
2022/07/10 09:44:02;;;;;;;5.63;3.10;;;;;;;23.52;43.37;94408.78;4160635;28;20050;-56
2022/07/10 09:46:08;;;;;;;4.90;2.95;;;;;;;23.41;45.03;94417.72;4169800;28;20098;-56